Time;durP1;ratioP1;P1;durP2;ratioP2;P2;SDS_P1;SDS_P2;PMS_P1;PMS_P2;Temp;Humidity;BMP_temperature;BMP_pressure;BME280_temperature;BME280_humidity;BME280_pressure;Samples;Min_cycle;Max_cycle;Signal;HPM_P1;HPM_P2
2022/07/11 00:00:19;;;;;;;4.57;1.40;;;16.70;99.90;;;;;;4155310;28;20482;-82
2022/07/11 00:02:20;;;;;;;2.60;1.13;;;16.70;99.90;;;;;;4128766;28;20081;-82
2022/07/11 00:04:22;;;;;;;6.50;1.80;;;16.60;99.90;;;;;;4167327;28;20068;-82
2022/07/11 00:06:25;;;;;;;5.95;2.20;;;16.70;99.90;;;;;;4107970;28;20411;-82
2022/07/11 00:08:25;;;;;;;3.97;1.90;;;16.60;99.90;;;;;;4096345;29;20051;-82
2022/07/11 00:10:26;;;;;;;2.00;1.23;;;16.60;99.90;;;;;;4129316;28;20122;-82
2022/07/11 00:12:27;;;;;;;3.25;1.45;;;16.60;99.90;;;;;;4111589;28;20070;-83
2022/07/11 00:14:28;;;;;;;5.53;1.42;;;16.60;99.90;;;;;;4142549;28;20101;-82
2022/07/11 00:16:35;;;;;;;5.53;1.75;;;16.60;99.90;;;;;;4113338;28;20055;-82
2022/07/11 00:18:35;;;;;;;5.00;1.52;;;16.60;99.90;;;;;;4102216;29;20058;-82
2022/07/11 00:20:37;;;;;;;4.13;1.75;;;16.50;99.90;;;;;;4138503;28;20039;-82
2022/07/11 00:22:38;;;;;;;5.05;1.90;;;16.50;99.90;;;;;;4119422;28;20053;-82
2022/07/11 00:24:39;;;;;;;3.53;2.00;;;16.50;99.90;;;;;;4134459;28;20125;-82
2022/07/11 00:26:41;;;;;;;4.72;2.35;;;16.50;99.90;;;;;;4134043;28;20054;-81
2022/07/11 00:28:44;;;;;;;4.07;1.70;;;16.50;99.90;;;;;;4093975;29;20544;-82
2022/07/11 00:30:45;;;;;;;6.78;1.77;;;16.50;99.90;;;;;;4126784;28;20046;-82
2022/07/11 00:32:48;;;;;;;6.55;1.70;;;16.60;99.90;;;;;;4137038;28;20586;-82
2022/07/11 00:34:48;;;;;;;7.07;2.00;;;16.60;99.90;;;;;;4134140;28;20410;-81
2022/07/11 00:36:49;;;;;;;4.15;1.95;;;16.60;99.90;;;;;;4145600;28;20387;-82
2022/07/11 00:38:50;;;;;;;2.65;1.70;;;16.60;99.90;;;;;;4131457;28;20081;-82
2022/07/11 00:40:51;;;;;;;3.33;1.70;;;16.60;99.90;;;;;;4146804;28;20044;-83
2022/07/11 00:42:52;;;;;;;3.83;1.83;;;16.50;99.90;;;;;;4130005;28;20042;-82
2022/07/11 00:44:53;;;;;;;3.38;1.85;;;16.50;99.90;;;;;;4148543;28;20042;-82
2022/07/11 00:46:54;;;;;;;2.58;1.58;;;16.40;99.90;;;;;;4104343;29;20115;-82
2022/07/11 00:48:56;;;;;;;5.22;1.63;;;16.40;99.90;;;;;;4154585;28;20050;-82
2022/07/11 00:50:59;;;;;;;6.22;2.38;;;16.40;99.90;;;;;;4112606;28;20051;-82
2022/07/11 00:52:59;;;;;;;3.28;1.70;;;16.40;99.90;;;;;;4137294;28;20054;-81
2022/07/11 00:55:02;;;;;;;4.32;1.55;;;16.40;99.90;;;;;;4109236;28;20519;-82
2022/07/11 00:57:04;;;;;;;2.15;1.45;;;16.40;99.90;;;;;;4122710;28;20492;-82
2022/07/11 00:59:07;;;;;;;3.60;1.60;;;16.40;99.90;;;;;;4126450;28;20054;-82
2022/07/11 01:01:08;;;;;;;2.55;1.48;;;16.40;99.90;;;;;;4148198;28;20133;-82
2022/07/11 01:03:09;;;;;;;5.40;1.58;;;16.40;99.90;;;;;;4145120;28;20043;-80
2022/07/11 01:05:09;;;;;;;2.22;1.45;;;16.50;99.90;;;;;;4120577;28;20035;-82
2022/07/11 01:07:10;;;;;;;3.30;1.50;;;16.40;99.90;;;;;;4103905;28;20082;-83
2022/07/11 01:09:12;;;;;;;2.45;1.40;;;16.40;99.90;;;;;;4118317;28;20413;-82
2022/07/11 01:11:15;;;;;;;3.55;1.38;;;16.40;99.90;;;;;;4149757;28;20046;-82
2022/07/11 01:13:16;;;;;;;5.75;1.20;;;16.40;99.90;;;;;;4134371;28;20126;-82
2022/07/11 01:15:16;;;;;;;2.67;1.50;;;16.40;99.90;;;;;;4133494;28;20043;-82
2022/07/11 01:17:17;;;;;;;2.75;1.30;;;16.40;99.90;;;;;;4146506;28;20096;-82
2022/07/11 01:19:18;;;;;;;2.78;1.20;;;16.30;99.90;;;;;;4106350;28;20507;-83
2022/07/11 01:21:24;;;;;;;7.15;1.40;;;16.30;99.90;;;;;;4144913;28;20069;-82
2022/07/11 01:23:25;;;;;;;9.50;2.15;;;16.30;99.90;;;;;;4135432;28;20042;-82
2022/07/11 01:25:32;;;;;;;1.77;1.35;;;16.30;99.90;;;;;;4147749;28;20052;-82
2022/07/11 01:27:36;;;;;;;5.15;1.30;;;16.30;99.90;;;;;;4127024;28;20043;-82
2022/07/11 01:29:36;;;;;;;2.03;1.15;;;16.30;99.90;;;;;;4115490;28;20594;-82
2022/07/11 01:31:42;;;;;;;2.72;1.20;;;16.30;99.90;;;;;;4126794;28;20126;-82
2022/07/11 01:33:45;;;;;;;4.07;1.70;;;16.30;99.90;;;;;;4119463;28;20050;-82
2022/07/11 01:35:47;;;;;;;4.50;1.27;;;16.30;99.90;;;;;;4136347;28;20042;-82
2022/07/11 01:37:48;;;;;;;3.22;1.17;;;16.30;99.90;;;;;;4135972;28;20034;-82
2022/07/11 01:39:48;;;;;;;1.95;1.20;;;16.30;99.90;;;;;;4103352;28;20093;-82
2022/07/11 01:41:49;;;;;;;2.78;1.17;;;16.30;99.90;;;;;;4119385;28;20047;-82
2022/07/11 01:43:50;;;;;;;3.28;1.77;;;16.30;99.90;;;;;;4136594;28;20053;-81
2022/07/11 01:45:53;;;;;;;2.42;1.25;;;16.30;99.90;;;;;;4119175;28;20057;-82
2022/07/11 01:47:54;;;;;;;3.40;1.58;;;16.30;99.90;;;;;;4103553;29;20055;-82
2022/07/11 01:49:55;;;;;;;3.50;1.33;;;16.30;99.90;;;;;;4137317;28;20046;-82
2022/07/11 01:51:57;;;;;;;1.95;1.40;;;16.30;99.90;;;;;;4151154;28;20221;-82
2022/07/11 01:53:57;;;;;;;2.85;1.60;;;16.30;99.90;;;;;;4136553;28;20105;-82
2022/07/11 01:55:58;;;;;;;3.42;1.48;;;16.20;99.90;;;;;;4118472;28;20051;-82
2022/07/11 01:57:59;;;;;;;3.75;1.65;;;16.30;99.90;;;;;;4119455;28;20055;-82
2022/07/11 02:00:00;;;;;;;2.92;1.75;;;16.30;99.90;;;;;;4118797;28;20047;-82
2022/07/11 02:02:00;;;;;;;2.92;1.60;;;16.30;99.90;;;;;;4136830;28;20487;-81
2022/07/11 02:04:01;;;;;;;2.80;1.80;;;16.30;99.90;;;;;;4136076;28;20129;-81
2022/07/11 02:06:02;;;;;;;4.22;1.33;;;16.30;99.90;;;;;;4103931;29;20503;-82
2022/07/11 02:08:11;;;;;;;4.25;1.35;;;16.30;99.90;;;;;;4151629;28;20052;-81
2022/07/11 02:10:12;;;;;;;2.22;1.50;;;16.20;99.90;;;;;;4119130;28;20058;-81
2022/07/11 02:12:13;;;;;;;3.00;1.58;;;16.20;99.90;;;;;;4136366;28;20051;-81
2022/07/11 02:14:13;;;;;;;3.67;1.20;;;16.20;99.90;;;;;;4136389;28;20053;-81
2022/07/11 02:16:14;;;;;;;3.53;1.30;;;16.10;99.90;;;;;;4136579;28;20049;-81
2022/07/11 02:18:15;;;;;;;2.95;1.20;;;16.10;99.90;;;;;;4136134;28;20038;-82
2022/07/11 02:20:16;;;;;;;3.58;1.80;;;16.10;99.90;;;;;;4138815;28;20038;-82
2022/07/11 02:22:16;;;;;;;2.88;1.45;;;16.10;99.90;;;;;;4138608;28;20074;-82
2022/07/11 02:24:18;;;;;;;3.35;1.20;;;16.00;99.90;;;;;;4139262;28;20050;-82
2022/07/11 02:26:19;;;;;;;6.50;1.40;;;16.00;99.90;;;;;;4153368;28;20057;-81
2022/07/11 02:28:19;;;;;;;2.25;1.40;;;16.00;99.90;;;;;;4138556;28;20050;-82
2022/07/11 02:30:20;;;;;;;3.45;1.38;;;16.00;99.90;;;;;;4120160;28;20051;-82
2022/07/11 02:32:21;;;;;;;5.00;1.33;;;16.00;99.90;;;;;;4137135;28;20053;-82
2022/07/11 02:34:22;;;;;;;4.82;1.10;;;16.00;99.90;;;;;;4117939;28;20047;-82
2022/07/11 02:36:23;;;;;;;2.92;1.48;;;16.00;99.90;;;;;;4136130;28;20048;-82
2022/07/11 02:38:24;;;;;;;2.63;1.48;;;16.10;99.90;;;;;;4117565;28;20519;-82
2022/07/11 02:40:25;;;;;;;2.45;0.95;;;16.00;99.90;;;;;;4134368;28;20054;-82
2022/07/11 02:42:25;;;;;;;2.88;1.20;;;16.00;99.90;;;;;;4133850;28;20081;-82
2022/07/11 02:44:26;;;;;;;1.75;0.90;;;16.00;99.90;;;;;;4133785;28;20042;-81
2022/07/11 02:46:27;;;;;;;5.72;1.00;;;16.00;99.90;;;;;;4116955;28;20117;-81
2022/07/11 02:48:27;;;;;;;1.67;1.00;;;16.00;99.90;;;;;;4149204;28;20561;-81
2022/07/11 02:50:28;;;;;;;4.70;1.10;;;16.00;99.90;;;;;;4116265;28;20093;-82
2022/07/11 02:52:29;;;;;;;1.42;0.63;;;16.00;99.90;;;;;;4148346;28;20483;-82
2022/07/11 02:54:30;;;;;;;2.50;1.10;;;16.00;99.90;;;;;;4133757;28;20121;-81
2022/07/11 02:56:32;;;;;;;4.05;1.35;;;16.00;99.90;;;;;;4100690;29;20051;-82
2022/07/11 02:58:33;;;;;;;3.75;1.58;;;16.00;99.90;;;;;;4133430;28;20049;-82
2022/07/11 03:00:35;;;;;;;3.95;1.40;;;16.00;99.90;;;;;;4100197;29;20138;-82
2022/07/11 03:02:36;;;;;;;1.38;0.95;;;16.00;99.90;;;;;;4099814;29;20077;-82
2022/07/11 03:04:36;;;;;;;1.05;0.90;;;16.10;99.90;;;;;;4133394;28;20052;-82
2022/07/11 03:06:40;;;;;;;3.05;0.98;;;16.10;99.90;;;;;;4099720;29;20061;-82
2022/07/11 03:08:40;;;;;;;4.53;1.10;;;16.10;99.90;;;;;;4115755;28;20051;-82
2022/07/11 03:10:41;;;;;;;1.50;0.90;;;16.10;99.90;;;;;;4114833;28;20057;-82
2022/07/11 03:12:43;;;;;;;3.65;1.17;;;16.10;99.90;;;;;;4132782;28;20513;-82
2022/07/11 03:14:44;;;;;;;1.45;0.85;;;16.10;99.90;;;;;;4115362;28;20058;-82
2022/07/11 03:16:44;;;;;;;1.10;0.85;;;16.00;99.90;;;;;;4132519;28;20046;-82
2022/07/11 03:18:45;;;;;;;2.67;1.17;;;16.00;99.90;;;;;;4115041;28;20565;-82
2022/07/11 03:20:46;;;;;;;4.00;1.67;;;16.00;99.90;;;;;;4147133;28;20415;-82
2022/07/11 03:22:47;;;;;;;1.17;0.55;;;16.00;99.90;;;;;;4114892;28;20050;-80
2022/07/11 03:24:47;;;;;;;2.15;0.68;;;16.00;99.90;;;;;;4114925;28;20498;-81
2022/07/11 03:26:48;;;;;;;2.65;0.65;;;16.00;99.90;;;;;;4115126;28;20054;-81
2022/07/11 03:28:49;;;;;;;4.40;0.70;;;16.00;99.90;;;;;;4132121;28;20042;-82
2022/07/11 03:30:49;;;;;;;1.65;0.73;;;16.00;99.90;;;;;;4114456;28;20443;-82
2022/07/11 03:32:50;;;;;;;1.30;0.60;;;16.00;99.90;;;;;;4132083;28;20038;-82
2022/07/11 03:37:10;;;;;;;1.98;0.70;;;16.00;99.90;;;;;;4132171;28;20061;-82
2022/07/11 03:39:11;;;;;;;3.25;0.70;;;16.00;99.90;;;;;;4113549;28;20055;-82
2022/07/11 03:41:11;;;;;;;1.95;0.60;;;16.00;99.90;;;;;;4114709;28;20050;-81
2022/07/11 03:43:12;;;;;;;2.33;0.50;;;16.00;99.90;;;;;;4132102;28;20043;-81
2022/07/11 03:45:13;;;;;;;1.38;0.47;;;16.00;99.90;;;;;;4098654;28;20544;-81
2022/07/11 03:47:13;;;;;;;3.17;0.88;;;16.00;99.90;;;;;;4130739;28;20050;-81
2022/07/11 03:49:14;;;;;;;0.90;0.55;;;16.00;99.90;;;;;;4131670;28;20038;-82
2022/07/11 03:51:16;;;;;;;1.42;0.60;;;16.00;99.90;;;;;;4132128;28;20121;-82
2022/07/11 03:53:18;;;;;;;2.15;0.70;;;16.00;99.90;;;;;;4114215;28;20050;-82
2022/07/11 03:55:18;;;;;;;2.63;0.75;;;16.00;99.90;;;;;;4114498;28;20062;-82
2022/07/11 03:57:19;;;;;;;1.80;0.70;;;16.00;99.90;;;;;;4132041;28;20059;-82
2022/07/11 03:59:22;;;;;;;1.27;0.30;;;16.00;99.90;;;;;;4131988;28;20046;-82
2022/07/11 04:01:23;;;;;;;1.45;0.77;;;16.00;99.90;;;;;;4114581;28;20046;-82
2022/07/11 04:03:25;;;;;;;2.13;0.70;;;16.00;99.90;;;;;;4131784;28;20462;-82
2022/07/11 04:05:27;;;;;;;5.40;1.25;;;16.00;99.90;;;;;;4114080;28;20046;-82
2022/07/11 04:07:28;;;;;;;1.95;0.68;;;16.00;99.90;;;;;;4114663;28;20495;-82
2022/07/11 04:09:29;;;;;;;0.77;0.73;;;16.00;99.90;;;;;;4114795;28;20521;-82
2022/07/11 04:11:30;;;;;;;2.42;0.77;;;16.00;99.90;;;;;;4114680;28;20050;-82
2022/07/11 04:13:31;;;;;;;2.75;0.77;;;16.00;99.90;;;;;;4114596;28;20182;-82
2022/07/11 04:15:31;;;;;;;1.45;0.70;;;16.00;99.90;;;;;;4132213;28;20066;-81
2022/07/11 04:17:32;;;;;;;0.75;0.52;;;16.00;99.90;;;;;;4098550;29;20050;-82
2022/07/11 04:19:33;;;;;;;1.65;0.50;;;16.00;99.90;;;;;;4134575;28;20042;-81
2022/07/11 04:21:33;;;;;;;2.28;0.50;;;16.00;99.90;;;;;;4099796;29;20051;-82
2022/07/11 04:23:34;;;;;;;0.68;0.47;;;16.00;99.90;;;;;;4098404;29;20519;-82
2022/07/11 04:25:36;;;;;;;3.15;0.50;;;15.90;99.90;;;;;;4116511;28;20051;-81
2022/07/11 04:27:36;;;;;;;0.30;0.30;;;16.00;99.90;;;;;;4101524;29;20431;-82
2022/07/11 04:29:37;;;;;;;2.47;0.30;;;16.00;99.90;;;;;;4148774;28;20077;-81
2022/07/11 04:31:38;;;;;;;1.38;0.32;;;16.00;99.90;;;;;;4116854;28;20227;-81
2022/07/11 04:33:40;;;;;;;0.60;0.20;;;16.00;99.90;;;;;;4134232;28;20084;-81
2022/07/11 04:35:41;;;;;;;0.70;0.32;;;16.00;99.90;;;;;;4114144;28;20566;-80
2022/07/11 04:37:42;;;;;;;1.20;0.38;;;16.00;99.90;;;;;;4149190;28;20057;-82
2022/07/11 04:39:46;;;;;;;0.68;0.30;;;16.00;99.90;;;;;;4116007;28;20050;-83
2022/07/11 04:41:48;;;;;;;0.63;0.30;;;16.00;99.90;;;;;;4115655;28;20050;-83
2022/07/11 04:43:48;;;;;;;0.38;0.30;;;16.10;99.90;;;;;;4099183;29;20051;-83
2022/07/11 04:45:49;;;;;;;0.47;0.40;;;16.00;99.90;;;;;;4146537;28;20406;-82
2022/07/11 04:47:51;;;;;;;5.30;0.28;;;16.00;99.90;;;;;;4098707;28;20539;-82
2022/07/11 04:49:52;;;;;;;1.45;0.30;;;16.10;99.90;;;;;;4114324;28;20138;-82
2022/07/11 04:51:53;;;;;;;0.75;0.20;;;16.10;99.90;;;;;;4113578;28;20054;-83
2022/07/11 04:53:54;;;;;;;1.65;0.30;;;16.10;99.90;;;;;;4136301;28;20104;-84
2022/07/11 04:55:55;;;;;;;1.25;0.43;;;16.10;99.90;;;;;;4137551;28;20108;-83
2022/07/11 04:57:55;;;;;;;2.08;1.05;;;16.10;99.90;;;;;;4098837;29;20055;-83
2022/07/11 04:59:57;;;;;;;3.30;0.25;;;16.10;99.90;;;;;;4158649;28;20061;-84
2022/07/11 05:02:00;;;;;;;0.82;0.28;;;16.10;99.90;;;;;;4163496;28;20109;-83
2022/07/11 05:04:01;;;;;;;0.68;0.32;;;16.10;99.90;;;;;;4162352;28;20097;-81
2022/07/11 05:06:03;;;;;;;1.30;0.30;;;16.20;99.90;;;;;;4130525;28;20050;-82
2022/07/11 05:08:03;;;;;;;3.70;0.30;;;16.20;99.90;;;;;;4135914;28;20054;-81
2022/07/11 05:10:05;;;;;;;1.08;0.30;;;16.20;99.90;;;;;;4137621;28;20042;-84
2022/07/11 05:12:06;;;;;;;3.80;0.38;;;16.30;99.90;;;;;;4145714;28;20050;-83
2022/07/11 05:14:08;;;;;;;0.38;0.20;;;16.30;99.90;;;;;;4130447;28;20046;-83
2022/07/11 05:16:09;;;;;;;1.00;0.30;;;16.30;99.90;;;;;;4141773;28;20049;-83
2022/07/11 05:18:09;;;;;;;0.60;0.50;;;16.40;99.90;;;;;;4134020;28;20533;-83
2022/07/11 05:20:10;;;;;;;1.02;0.45;;;16.40;99.90;;;;;;4140447;28;20053;-83
2022/07/11 05:22:11;;;;;;;2.35;0.28;;;16.40;99.90;;;;;;4111773;28;20047;-84
2022/07/11 05:24:12;;;;;;;0.40;0.38;;;16.50;99.90;;;;;;4113122;28;20043;-84
2022/07/11 05:26:14;;;;;;;0.75;0.10;;;16.50;99.90;;;;;;4096624;29;20086;-84
2022/07/11 05:28:15;;;;;;;2.55;0.20;;;16.50;99.90;;;;;;4097420;29;20102;-83
2022/07/11 05:30:15;;;;;;;0.63;0.20;;;16.50;99.90;;;;;;4113054;28;20099;-84
2022/07/11 05:32:17;;;;;;;1.23;0.30;;;16.50;99.90;;;;;;4113239;28;20424;-84
2022/07/11 05:34:18;;;;;;;0.55;0.20;;;16.50;99.90;;;;;;4141344;28;20376;-84
2022/07/11 05:36:18;;;;;;;0.60;0.10;;;16.60;99.90;;;;;;4118540;28;20146;-84
2022/07/11 05:38:19;;;;;;;0.95;0.20;;;16.50;99.90;;;;;;4125660;28;20064;-83
2022/07/11 05:40:20;;;;;;;1.33;0.13;;;16.50;99.90;;;;;;4129944;28;20042;-84
2022/07/11 05:42:21;;;;;;;0.57;0.20;;;16.50;99.90;;;;;;4113086;28;20047;-83
2022/07/11 05:44:21;;;;;;;0.20;0.15;;;16.50;99.90;;;;;;4112685;28;20061;-84
2022/07/11 05:46:22;;;;;;;0.82;0.20;;;16.60;99.90;;;;;;4112799;28;20050;-83
2022/07/11 05:48:23;;;;;;;0.10;0.10;;;16.50;99.90;;;;;;4112912;28;20193;-84
2022/07/11 05:50:23;;;;;;;0.28;0.20;;;16.60;99.90;;;;;;4096269;29;20507;-83
2022/07/11 05:52:24;;;;;;;0.20;0.10;;;16.50;99.90;;;;;;4113543;28;20113;-83
2022/07/11 05:54:25;;;;;;;2.15;0.28;;;16.60;99.90;;;;;;4150183;28;20049;-83
2022/07/11 05:56:26;;;;;;;0.57;0.15;;;16.60;99.90;;;;;;4116067;28;20117;-83
2022/07/11 05:58:26;;;;;;;0.52;0.10;;;16.70;99.90;;;;;;4131111;28;20413;-84
2022/07/11 06:00:27;;;;;;;0.20;0.20;;;16.70;99.90;;;;;;4131213;28;20046;-83
2022/07/11 06:02:28;;;;;;;0.93;0.25;;;16.80;99.90;;;;;;4113522;28;20043;-83
2022/07/11 06:04:29;;;;;;;0.60;0.17;;;16.80;99.90;;;;;;4131313;28;20050;-84
2022/07/11 06:06:30;;;;;;;1.40;0.10;;;16.80;99.90;;;;;;4131454;28;20052;-85
2022/07/11 06:08:40;;;;;;;1.95;0.50;;;16.90;99.90;;;;;;4132041;28;20100;-83
2022/07/11 06:10:42;;;;;;;2.17;0.30;;;16.90;99.90;;;;;;4134426;28;20096;-84
2022/07/11 06:12:43;;;;;;;0.60;0.25;;;16.90;99.90;;;;;;4101258;29;20047;-84
2022/07/11 06:14:44;;;;;;;0.90;0.32;;;16.90;99.90;;;;;;4117688;28;20046;-84
2022/07/11 06:16:48;;;;;;;0.55;0.20;;;16.90;99.90;;;;;;4136056;28;20450;-84
2022/07/11 06:18:50;;;;;;;1.65;0.20;;;16.90;99.90;;;;;;4135578;28;20050;-84
2022/07/11 06:20:52;;;;;;;2.20;0.38;;;16.90;99.90;;;;;;4134733;28;20475;-83
2022/07/11 06:22:53;;;;;;;7.47;1.25;;;17.00;99.90;;;;;;4101090;29;20086;-83
2022/07/11 06:24:55;;;;;;;3.10;0.40;;;17.00;99.90;;;;;;4134423;28;20407;-84
2022/07/11 06:27:00;;;;;;;3.05;0.65;;;17.10;99.90;;;;;;4117018;28;20452;-83
2022/07/11 06:29:01;;;;;;;0.20;0.10;;;17.10;99.90;;;;;;4100809;29;20071;-83
2022/07/11 06:31:02;;;;;;;0.70;0.22;;;17.10;99.90;;;;;;4133673;28;20165;-83
2022/07/11 06:33:03;;;;;;;0.47;0.20;;;17.10;99.90;;;;;;4101027;29;20061;-84
2022/07/11 06:35:05;;;;;;;0.40;0.30;;;17.10;99.90;;;;;;4149245;28;20414;-84
2022/07/11 06:37:07;;;;;;;3.03;0.30;;;17.10;99.90;;;;;;4101020;29;20131;-85
2022/07/11 06:39:08;;;;;;;2.33;0.22;;;17.10;99.90;;;;;;4148742;28;20058;-84
2022/07/11 06:41:09;;;;;;;0.40;0.20;;;17.10;99.90;;;;;;4116227;28;20057;-84
2022/07/11 06:43:10;;;;;;;1.52;0.50;;;17.20;99.90;;;;;;4116595;28;20108;-84
2022/07/11 06:45:11;;;;;;;0.43;0.30;;;17.20;99.90;;;;;;4116797;28;20495;-84
2022/07/11 06:47:11;;;;;;;1.85;0.40;;;17.30;99.90;;;;;;4100284;29;20046;-85
2022/07/11 06:49:13;;;;;;;0.60;0.20;;;17.30;99.90;;;;;;4115820;28;20051;-84
2022/07/11 06:51:13;;;;;;;0.73;0.20;;;17.30;99.90;;;;;;4116285;28;20456;-84
2022/07/11 06:53:14;;;;;;;0.35;0.20;;;17.40;99.90;;;;;;4133475;28;20051;-84
2022/07/11 06:55:15;;;;;;;1.95;0.30;;;17.40;99.90;;;;;;4116728;28;20053;-84
2022/07/11 06:57:15;;;;;;;1.58;0.47;;;17.40;99.90;;;;;;4101310;29;20051;-84
2022/07/11 06:59:16;;;;;;;0.82;0.30;;;17.40;99.90;;;;;;4134012;28;20061;-84
2022/07/11 07:01:17;;;;;;;1.23;0.10;;;17.40;99.90;;;;;;4118100;28;20055;-84
2022/07/11 07:03:20;;;;;;;1.27;0.40;;;17.40;99.90;;;;;;4134873;28;20595;-85
2022/07/11 07:05:22;;;;;;;3.30;1.00;;;17.40;99.90;;;;;;4135063;28;20054;-84
2022/07/11 07:07:23;;;;;;;1.95;0.13;;;17.50;99.90;;;;;;4117126;28;20101;-84
2022/07/11 07:09:23;;;;;;;1.77;0.60;;;17.50;99.90;;;;;;4149052;28;20053;-84
2022/07/11 07:11:24;;;;;;;1.20;0.30;;;17.50;99.90;;;;;;4134812;28;20054;-84
2022/07/11 07:13:28;;;;;;;1.00;0.30;;;17.60;99.90;;;;;;4135041;28;20053;-83
2022/07/11 07:15:29;;;;;;;3.22;0.32;;;17.70;99.90;;;;;;4134968;28;20418;-84
2022/07/11 07:17:31;;;;;;;0.70;0.40;;;17.70;99.90;;;;;;4134326;28;20049;-84
2022/07/11 07:19:32;;;;;;;0.85;0.30;;;17.80;99.90;;;;;;4148811;28;20129;-85
2022/07/11 07:21:33;;;;;;;0.70;0.20;;;17.90;99.90;;;;;;4116882;28;20047;-84
2022/07/11 07:23:35;;;;;;;3.05;0.22;;;18.10;99.90;;;;;;4100808;29;20057;-84
2022/07/11 07:25:39;;;;;;;1.65;0.30;;;18.20;99.90;;;;;;4148810;28;20049;-83
2022/07/11 07:27:40;;;;;;;1.35;0.20;;;18.20;99.90;;;;;;4116712;28;20157;-85
2022/07/11 07:29:41;;;;;;;2.00;0.30;;;18.30;99.90;;;;;;4133440;28;20054;-85
2022/07/11 07:31:42;;;;;;;0.90;0.28;;;18.40;99.90;;;;;;4133123;28;20046;-84
2022/07/11 07:33:42;;;;;;;1.63;0.20;;;18.40;99.90;;;;;;4115972;28;20389;-84
2022/07/11 07:35:44;;;;;;;1.88;0.30;;;18.50;99.90;;;;;;4133575;28;20046;-84
2022/07/11 07:37:45;;;;;;;0.45;0.20;;;18.50;99.90;;;;;;4133041;28;20547;-84
2022/07/11 07:39:47;;;;;;;0.93;0.73;;;18.50;99.90;;;;;;4099494;28;20051;-84
2022/07/11 07:41:47;;;;;;;0.88;0.20;;;18.50;99.90;;;;;;4132843;28;20049;-83
2022/07/11 07:43:49;;;;;;;1.00;0.40;;;18.50;99.90;;;;;;4132862;28;20047;-84
2022/07/11 07:45:49;;;;;;;1.50;0.20;;;18.40;99.90;;;;;;4115450;28;20134;-84
2022/07/11 07:47:50;;;;;;;0.50;0.30;;;18.40;99.90;;;;;;4134899;28;20487;-83
2022/07/11 07:49:51;;;;;;;0.73;0.05;;;18.40;99.90;;;;;;4115208;28;20053;-83
2022/07/11 07:51:51;;;;;;;0.45;0.20;;;18.40;99.90;;;;;;4147833;28;20498;-83
2022/07/11 07:53:54;;;;;;;0.10;0.10;;;18.40;99.90;;;;;;4132764;28;20467;-84
2022/07/11 07:55:55;;;;;;;0.40;0.10;;;18.60;99.90;;;;;;4099551;29;20090;-84
2022/07/11 07:57:56;;;;;;;0.45;0.10;;;18.80;99.90;;;;;;4132237;28;20061;-84
2022/07/11 08:02:16;;;;;;;;;;;19.30;99.90;;;;;;4133283;28;20153;-84
2022/07/11 08:04:18;;;;;;;0.52;0.10;;;19.60;99.90;;;;;;4115261;28;19922;-84
2022/07/11 08:06:19;;;;;;;0.20;0.10;;;19.80;99.90;;;;;;4132408;28;20050;-84
2022/07/11 08:08:19;;;;;;;0.80;0.15;;;19.90;99.90;;;;;;4098715;29;20130;-84
2022/07/11 08:10:20;;;;;;;0.55;0.17;;;20.00;99.90;;;;;;4132277;28;20047;-85
2022/07/11 08:12:21;;;;;;;0.32;0.10;;;20.00;99.90;;;;;;4147092;28;20045;-84
2022/07/11 08:14:22;;;;;;;0.75;0.10;;;20.00;99.90;;;;;;4114902;28;20181;-85
2022/07/11 08:16:23;;;;;;;0.10;0.10;;;19.90;99.90;;;;;;4132125;28;20050;-84
2022/07/11 08:18:23;;;;;;;0.10;0.10;;;19.80;99.90;;;;;;4114375;28;20046;-85
2022/07/11 08:20:24;;;;;;;2.38;0.20;;;19.70;99.90;;;;;;4132138;28;20487;-85
2022/07/11 08:22:25;;;;;;;1.85;0.10;;;19.60;99.90;;;;;;4098916;29;20050;-85
2022/07/11 08:24:27;;;;;;;0.40;0.20;;;19.50;99.90;;;;;;4098776;29;20047;-85
2022/07/11 08:26:28;;;;;;;1.05;0.20;;;19.40;99.90;;;;;;4132021;28;20043;-85
2022/07/11 08:28:28;;;;;;;0.30;0.25;;;19.30;99.90;;;;;;4132231;28;20054;-83
2022/07/11 08:30:29;;;;;;;0.38;0.10;;;19.20;99.90;;;;;;4098465;29;20122;-84
2022/07/11 08:32:29;;;;;;;0.40;0.10;;;19.20;99.90;;;;;;4114535;28;20105;-84
2022/07/11 08:34:30;;;;;;;0.20;0.10;;;19.20;99.90;;;;;;4131885;28;20059;-85
2022/07/11 08:36:34;;;;;;;0.13;0.00;;;19.30;99.90;;;;;;4131904;28;20045;-85
2022/07/11 08:38:35;;;;;;;1.50;0.17;;;19.40;99.90;;;;;;4131353;28;20416;-84
2022/07/11 08:40:36;;;;;;;0.45;0.17;;;19.60;99.90;;;;;;4131526;28;20058;-84
2022/07/11 08:42:44;;;;;;;0.70;0.20;;;19.60;99.90;;;;;;4131601;28;20050;-84
2022/07/11 08:44:46;;;;;;;0.20;0.10;;;19.70;99.90;;;;;;4131783;28;20053;-84
2022/07/11 08:46:48;;;;;;;0.10;0.10;;;19.80;99.90;;;;;;4114334;28;20468;-84
2022/07/11 08:48:51;;;;;;;0.68;0.10;;;19.70;99.90;;;;;;4132165;28;20100;-84
2022/07/11 08:50:52;;;;;;;0.55;0.10;;;19.70;99.90;;;;;;4098426;29;20059;-84
2022/07/11 08:52:57;;;;;;;0.10;0.00;;;19.60;99.90;;;;;;4113744;28;20077;-84
2022/07/11 08:54:58;;;;;;;1.15;0.63;;;19.60;99.90;;;;;;4098653;29;20526;-84
2022/07/11 08:57:01;;;;;;;0.15;0.10;;;19.60;99.90;;;;;;4131804;28;20065;-85
2022/07/11 08:59:03;;;;;;;1.48;0.40;;;19.60;99.90;;;;;;4131763;28;20056;-85
2022/07/11 09:01:06;;;;;;;0.25;0.10;;;19.50;99.90;;;;;;4114668;28;20090;-85
2022/07/11 09:03:07;;;;;;;1.02;0.45;;;19.50;99.90;;;;;;4145986;28;20046;-85
2022/07/11 09:05:08;;;;;;;0.10;0.10;;;19.50;99.90;;;;;;4131728;28;20050;-85
2022/07/11 09:07:09;;;;;;;4.07;0.20;;;19.60;99.90;;;;;;4114542;28;20054;-85
2022/07/11 09:09:10;;;;;;;0.85;0.22;;;19.70;99.90;;;;;;4146602;28;20061;-85
2022/07/11 09:11:10;;;;;;;0.73;0.20;;;19.70;99.90;;;;;;4114506;28;20047;-84
2022/07/11 09:13:11;;;;;;;0.10;0.00;;;19.80;99.90;;;;;;4146562;28;20483;-84
2022/07/11 09:15:13;;;;;;;1.55;0.10;;;19.80;99.90;;;;;;4115562;28;20046;-84
2022/07/11 09:17:13;;;;;;;4.13;0.10;;;19.80;99.90;;;;;;4115421;28;20105;-84
2022/07/11 09:19:25;;;;;;;1.20;0.10;;;19.80;99.90;;;;;;4114033;28;20133;-84
2022/07/11 09:26:24;;;;;;;0.35;0.10;;;19.60;99.90;;;;;;4096009;28;20134;-85
2022/07/11 09:28:25;;;;;;;0.00;0.00;;;19.60;99.90;;;;;;4130819;28;20046;-85
2022/07/11 09:30:29;;;;;;;0.10;0.00;;;19.60;99.90;;;;;;4131351;28;20078;-85
2022/07/11 09:32:41;;;;;;;0.10;0.10;;;19.60;99.90;;;;;;4131264;28;20526;-85
2022/07/11 09:34:59;;;;;;;1.38;0.10;;;19.50;99.90;;;;;;4114186;28;20051;-84
2022/07/11 09:37:00;;;;;;;0.08;0.08;;;19.50;99.90;;;;;;4131474;28;20406;-85
2022/07/11 09:39:02;;;;;;;0.47;0.20;;;19.40;99.90;;;;;;4113965;28;20082;-85
2022/07/11 09:41:10;;;;;;;0.10;0.10;;;19.40;99.90;;;;;;4131299;28;20533;-85
2022/07/11 09:43:11;;;;;;;0.75;0.22;;;19.40;99.90;;;;;;4146415;28;20053;-85
2022/07/11 09:45:14;;;;;;;0.13;0.10;;;19.40;99.90;;;;;;4117244;28;20419;-85
2022/07/11 09:47:15;;;;;;;0.40;0.20;;;19.50;99.90;;;;;;4134526;28;20054;-85
2022/07/11 09:49:28;;;;;;;0.20;0.13;;;19.60;99.90;;;;;;4135192;28;20445;-85
2022/07/11 09:51:29;;;;;;;0.20;0.10;;;19.60;99.90;;;;;;4100840;29;20130;-85
2022/07/11 09:53:31;;;;;;;0.00;0.00;;;19.60;99.90;;;;;;4118996;28;20043;-84
2022/07/11 09:55:33;;;;;;;0.00;0.00;;;19.60;99.90;;;;;;4136258;28;20049;-85
2022/07/11 09:57:39;;;;;;;0.30;0.30;;;19.60;99.90;;;;;;4117211;28;20137;-85
2022/07/11 09:59:41;;;;;;;0.20;0.10;;;19.50;99.90;;;;;;4151378;28;20046;-85
2022/07/11 10:01:43;;;;;;;0.60;0.20;;;19.50;99.90;;;;;;4135348;28;20047;-85
2022/07/11 10:03:43;;;;;;;0.95;0.20;;;19.40;99.90;;;;;;4134891;28;20046;-85
2022/07/11 10:05:44;;;;;;;2.20;0.30;;;19.40;99.90;;;;;;4135866;28;20046;-85
2022/07/11 10:07:45;;;;;;;0.30;0.20;;;19.40;99.90;;;;;;4149047;28;20164;-85
2022/07/11 10:09:45;;;;;;;0.40;0.20;;;19.40;99.90;;;;;;4116953;28;20046;-86
2022/07/11 10:11:46;;;;;;;0.30;0.20;;;19.40;99.90;;;;;;4149316;28;20487;-86
2022/07/11 10:13:47;;;;;;;0.80;0.10;;;19.40;99.90;;;;;;4133922;28;20053;-85
2022/07/11 10:15:48;;;;;;;0.93;0.17;;;19.50;99.90;;;;;;4134281;28;20046;-85
2022/07/11 10:18:02;;;;;;;0.20;0.20;;;19.50;99.90;;;;;;4117052;28;20503;-84
2022/07/11 10:20:14;;;;;;;1.08;0.25;;;19.60;99.90;;;;;;4134176;28;20398;-85
2022/07/11 10:22:21;;;;;;;1.15;0.17;;;19.60;99.90;;;;;;4133905;28;20096;-85
2022/07/11 10:24:30;;;;;;;0.22;0.10;;;19.70;99.90;;;;;;4117013;28;20089;-85
2022/07/11 10:26:40;;;;;;;0.60;0.17;;;19.80;99.90;;;;;;4149196;28;20057;-85
2022/07/11 10:28:44;;;;;;;0.10;0.10;;;19.80;99.90;;;;;;4134360;28;20136;-85
2022/07/11 10:30:47;;;;;;;0.35;0.15;;;19.80;99.90;;;;;;4100830;29;20059;-84
2022/07/11 10:32:59;;;;;;;1.50;0.20;;;19.90;99.90;;;;;;4134351;28;20418;-84
2022/07/11 10:35:10;;;;;;;0.55;0.20;;;20.00;99.90;;;;;;4117315;28;20208;-84
2022/07/11 10:37:12;;;;;;;0.52;0.20;;;20.00;99.90;;;;;;4134280;28;20404;-84
2022/07/11 10:39:24;;;;;;;0.47;0.28;;;19.90;99.90;;;;;;4116912;28;20058;-84
2022/07/11 10:41:26;;;;;;;1.42;0.50;;;19.90;99.90;;;;;;4134494;28;20461;-84
2022/07/11 10:43:36;;;;;;;0.25;0.25;;;19.90;99.90;;;;;;4101080;29;20131;-85